sensor_id;sensor_type;location;lat;lon;timestamp;pressure;altitude;pressure_sealevel;temperature;humidity
19789;BME280;10054;59.332;18.244;2024-02-26T00:01:46;100348.34;;;0.41;100.00
19789;BME280;10054;59.332;18.244;2024-02-26T00:04:15;100335.02;;;0.54;100.00
19789;BME280;10054;59.332;18.244;2024-02-26T00:06:44;100342.28;;;0.58;100.00
19789;BME280;10054;59.332;18.244;2024-02-26T00:09:14;100345.84;;;0.54;100.00
19789;BME280;10054;59.332;18.244;2024-02-26T00:11:43;100356.83;;;0.47;100.00
19789;BME280;10054;59.332;18.244;2024-02-26T00:14:12;100357.80;;;0.43;100.00
19789;BME280;10054;59.332;18.244;2024-02-26T00:16:41;100356.66;;;0.37;100.00
19789;BME280;10054;59.332;18.244;2024-02-26T00:19:12;100360.66;;;0.32;100.00
19789;BME280;10054;59.332;18.244;2024-02-26T00:21:44;100364.59;;;0.31;100.00
19789;BME280;10054;59.332;18.244;2024-02-26T00:24:13;100365.89;;;0.31;100.00
19789;BME280;10054;59.332;18.244;2024-02-26T00:26:42;100358.06;;;0.32;100.00
19789;BME280;10054;59.332;18.244;2024-02-26T00:29:11;100359.77;;;0.33;100.00
19789;BME280;10054;59.332;18.244;2024-02-26T00:31:40;100354.17;;;0.32;100.00
19789;BME280;10054;59.332;18.244;2024-02-26T00:34:09;100361.11;;;0.32;100.00
19789;BME280;10054;59.332;18.244;2024-02-26T00:36:37;100361.03;;;0.35;100.00
19789;BME280;10054;59.332;18.244;2024-02-26T00:39:06;100358.84;;;0.36;100.00
19789;BME280;10054;59.332;18.244;2024-02-26T00:41:40;100364.00;;;0.38;100.00
19789;BME280;10054;59.332;18.244;2024-02-26T00:44:09;100352.77;;;0.37;100.00
19789;BME280;10054;59.332;18.244;2024-02-26T00:46:38;100353.25;;;0.35;100.00
19789;BME280;10054;59.332;18.244;2024-02-26T00:49:07;100350.66;;;0.35;100.00
19789;BME280;10054;59.332;18.244;2024-02-26T00:51:36;100351.95;;;0.35;100.00
19789;BME280;10054;59.332;18.244;2024-02-26T00:54:05;100352.87;;;0.32;100.00
19789;BME280;10054;59.332;18.244;2024-02-26T00:56:34;100348.58;;;0.31;100.00
19789;BME280;10054;59.332;18.244;2024-02-26T00:59:03;100349.84;;;0.33;100.00
19789;BME280;10054;59.332;18.244;2024-02-26T01:01:32;100343.76;;;0.34;100.00
19789;BME280;10054;59.332;18.244;2024-02-26T01:04:01;100339.79;;;0.37;100.00
19789;BME280;10054;59.332;18.244;2024-02-26T01:06:30;100345.39;;;0.38;100.00
19789;BME280;10054;59.332;18.244;2024-02-26T01:08:59;100355.69;;;0.41;100.00
19789;BME280;10054;59.332;18.244;2024-02-26T01:11:28;100353.50;;;0.42;100.00
19789;BME280;10054;59.332;18.244;2024-02-26T01:13:57;100359.11;;;0.59;100.00
19789;BME280;10054;59.332;18.244;2024-02-26T01:16:27;100362.85;;;0.65;100.00
19789;BME280;10054;59.332;18.244;2024-02-26T01:18:56;100363.78;;;0.63;100.00
19789;BME280;10054;59.332;18.244;2024-02-26T01:21:25;100368.56;;;0.62;100.00
19789;BME280;10054;59.332;18.244;2024-02-26T01:23:55;100375.13;;;0.59;100.00
19789;BME280;10054;59.332;18.244;2024-02-26T01:26:25;100380.36;;;0.57;100.00
19789;BME280;10054;59.332;18.244;2024-02-26T01:28:53;100385.63;;;0.54;100.00
19789;BME280;10054;59.332;18.244;2024-02-26T01:31:23;100387.41;;;0.52;100.00
19789;BME280;10054;59.332;18.244;2024-02-26T01:33:51;100381.00;;;0.49;100.00
19789;BME280;10054;59.332;18.244;2024-02-26T01:36:20;100380.59;;;0.48;100.00
19789;BME280;10054;59.332;18.244;2024-02-26T01:38:49;100376.30;;;0.47;100.00
19789;BME280;10054;59.332;18.244;2024-02-26T01:41:18;100377.11;;;0.49;100.00
19789;BME280;10054;59.332;18.244;2024-02-26T01:43:47;100382.22;;;0.52;100.00
19789;BME280;10054;59.332;18.244;2024-02-26T01:46:17;100368.31;;;0.55;100.00
19789;BME280;10054;59.332;18.244;2024-02-26T01:48:46;100364.79;;;0.57;100.00
19789;BME280;10054;59.332;18.244;2024-02-26T01:51:17;100366.91;;;0.59;100.00
19789;BME280;10054;59.332;18.244;2024-02-26T01:53:46;100355.14;;;0.62;100.00
19789;BME280;10054;59.332;18.244;2024-02-26T01:56:15;100350.31;;;0.65;100.00
19789;BME280;10054;59.332;18.244;2024-02-26T01:58:46;100357.50;;;0.72;100.00
19789;BME280;10054;59.332;18.244;2024-02-26T02:01:16;100368.25;;;0.74;100.00
19789;BME280;10054;59.332;18.244;2024-02-26T02:03:46;100369.06;;;0.75;100.00
19789;BME280;10054;59.332;18.244;2024-02-26T02:06:16;100372.96;;;0.75;100.00
19789;BME280;10054;59.332;18.244;2024-02-26T02:08:45;100370.77;;;0.76;100.00
19789;BME280;10054;59.332;18.244;2024-02-26T02:11:15;100366.47;;;0.75;100.00
19789;BME280;10054;59.332;18.244;2024-02-26T02:13:45;100355.34;;;0.71;100.00
19789;BME280;10054;59.332;18.244;2024-02-26T02:16:14;100367.96;;;0.69;100.00
19789;BME280;10054;59.332;18.244;2024-02-26T02:18:43;100359.73;;;0.69;100.00
19789;BME280;10054;59.332;18.244;2024-02-26T02:21:11;100352.80;;;0.70;100.00
19789;BME280;10054;59.332;18.244;2024-02-26T02:23:40;100348.48;;;0.69;100.00
19789;BME280;10054;59.332;18.244;2024-02-26T02:26:11;100355.39;;;0.70;100.00
19789;BME280;10054;59.332;18.244;2024-02-26T02:28:40;100346.63;;;0.74;100.00
19789;BME280;10054;59.332;18.244;2024-02-26T02:31:09;100348.41;;;0.72;100.00
19789;BME280;10054;59.332;18.244;2024-02-26T02:33:39;100352.71;;;0.73;100.00
19789;BME280;10054;59.332;18.244;2024-02-26T02:36:08;100349.59;;;0.75;100.00
19789;BME280;10054;59.332;18.244;2024-02-26T02:38:48;100346.63;;;0.74;100.00
19789;BME280;10054;59.332;18.244;2024-02-26T02:41:09;100347.07;;;0.73;100.00
19789;BME280;10054;59.332;18.244;2024-02-26T02:43:38;100334.58;;;0.71;100.00
19789;BME280;10054;59.332;18.244;2024-02-26T02:46:07;100336.77;;;0.70;100.00
19789;BME280;10054;59.332;18.244;2024-02-26T02:48:36;100334.17;;;0.70;100.00
19789;BME280;10054;59.332;18.244;2024-02-26T02:51:05;100330.72;;;0.70;100.00
19789;BME280;10054;59.332;18.244;2024-02-26T02:53:34;100337.74;;;0.66;100.00
19789;BME280;10054;59.332;18.244;2024-02-26T02:56:03;100336.89;;;0.65;100.00
19789;BME280;10054;59.332;18.244;2024-02-26T02:58:33;100333.93;;;0.63;100.00
19789;BME280;10054;59.332;18.244;2024-02-26T03:01:02;100339.56;;;0.62;100.00
19789;BME280;10054;59.332;18.244;2024-02-26T03:03:31;100331.41;;;0.60;100.00
19789;BME280;10054;59.332;18.244;2024-02-26T03:06:00;100331.01;;;0.59;100.00
19789;BME280;10054;59.332;18.244;2024-02-26T03:08:29;100331.90;;;0.58;100.00
19789;BME280;10054;59.332;18.244;2024-02-26T03:10:59;100330.60;;;0.58;100.00
19789;BME280;10054;59.332;18.244;2024-02-26T03:13:28;100326.79;;;0.55;100.00
19789;BME280;10054;59.332;18.244;2024-02-26T03:15:57;100327.64;;;0.55;100.00
19789;BME280;10054;59.332;18.244;2024-02-26T03:18:27;100327.16;;;0.57;100.00
19789;BME280;10054;59.332;18.244;2024-02-26T03:20:56;100320.66;;;0.57;100.00
19789;BME280;10054;59.332;18.244;2024-02-26T03:23:24;100327.56;;;0.58;100.00
19789;BME280;10054;59.332;18.244;2024-02-26T03:25:53;100326.22;;;0.60;100.00
19789;BME280;10054;59.332;18.244;2024-02-26T03:28:23;100321.44;;;0.61;100.00
19789;BME280;10054;59.332;18.244;2024-02-26T03:30:52;100329.59;;;0.63;100.00
19789;BME280;10054;59.332;18.244;2024-02-26T03:33:21;100324.80;;;0.64;100.00
19789;BME280;10054;59.332;18.244;2024-02-26T03:35:50;100329.55;;;0.65;100.00
19789;BME280;10054;59.332;18.244;2024-02-26T03:38:18;100322.61;;;0.65;100.00
19789;BME280;10054;59.332;18.244;2024-02-26T03:40:47;100323.42;;;0.68;100.00
19789;BME280;10054;59.332;18.244;2024-02-26T03:43:17;100318.67;;;0.67;100.00
19789;BME280;10054;59.332;18.244;2024-02-26T03:45:46;100316.98;;;0.66;100.00
19789;BME280;10054;59.332;18.244;2024-02-26T03:48:15;100327.40;;;0.64;100.00
19789;BME280;10054;59.332;18.244;2024-02-26T03:50:44;100318.80;;;0.62;100.00
19789;BME280;10054;59.332;18.244;2024-02-26T03:53:13;100321.84;;;0.62;100.00
19789;BME280;10054;59.332;18.244;2024-02-26T03:55:42;100317.55;;;0.61;100.00
19789;BME280;10054;59.332;18.244;2024-02-26T03:58:13;100320.55;;;0.62;100.00
19789;BME280;10054;59.332;18.244;2024-02-26T04:00:43;100322.25;;;0.63;100.00
19789;BME280;10054;59.332;18.244;2024-02-26T04:03:12;100320.50;;;0.63;100.00
19789;BME280;10054;59.332;18.244;2024-02-26T04:05:41;100319.66;;;0.63;100.00
19789;BME280;10054;59.332;18.244;2024-02-26T04:08:09;100313.61;;;0.62;100.00
19789;BME280;10054;59.332;18.244;2024-02-26T04:10:39;100312.31;;;0.62;100.00
19789;BME280;10054;59.332;18.244;2024-02-26T04:13:08;100307.12;;;0.62;100.00
19789;BME280;10054;59.332;18.244;2024-02-26T04:15:37;100310.97;;;0.64;100.00
19789;BME280;10054;59.332;18.244;2024-02-26T04:18:06;100312.23;;;0.65;100.00
19789;BME280;10054;59.332;18.244;2024-02-26T04:20:35;100308.78;;;0.65;100.00
19789;BME280;10054;59.332;18.244;2024-02-26T04:23:04;100315.27;;;0.65;100.00
19789;BME280;10054;59.332;18.244;2024-02-26T04:25:33;100311.37;;;0.65;100.00
19789;BME280;10054;59.332;18.244;2024-02-26T04:28:03;100315.64;;;0.68;100.00
19789;BME280;10054;59.332;18.244;2024-02-26T04:30:32;100313.94;;;0.67;100.00
19789;BME280;10054;59.332;18.244;2024-02-26T04:33:01;100320.83;;;0.68;100.00
19789;BME280;10054;59.332;18.244;2024-02-26T04:35:30;100315.64;;;0.68;100.00
19789;BME280;10054;59.332;18.244;2024-02-26T04:37:59;100314.34;;;0.68;100.00
19789;BME280;10054;59.332;18.244;2024-02-26T04:40:28;100315.64;;;0.68;100.00
19789;BME280;10054;59.332;18.244;2024-02-26T04:42:56;100311.30;;;0.68;100.00
19789;BME280;10054;59.332;18.244;2024-02-26T04:45:25;100322.94;;;0.70;100.00
19789;BME280;10054;59.332;18.244;2024-02-26T04:47:54;100319.05;;;0.70;100.00
19789;BME280;10054;59.332;18.244;2024-02-26T04:50:24;100322.49;;;0.70;100.00
19789;BME280;10054;59.332;18.244;2024-02-26T04:52:53;100317.26;;;0.72;100.00
19789;BME280;10054;59.332;18.244;2024-02-26T04:55:22;100330.64;;;0.73;100.00
19789;BME280;10054;59.332;18.244;2024-02-26T04:57:50;100326.30;;;0.73;100.00
19789;BME280;10054;59.332;18.244;2024-02-26T05:00:19;100326.70;;;0.74;100.00
19789;BME280;10054;59.332;18.244;2024-02-26T05:02:48;100329.75;;;0.74;100.00
19789;BME280;10054;59.332;18.244;2024-02-26T05:05:18;100337.09;;;0.74;100.00
19789;BME280;10054;59.332;18.244;2024-02-26T05:07:46;100333.64;;;0.74;100.00
19789;BME280;10054;59.332;18.244;2024-02-26T05:10:15;100340.14;;;0.74;100.00
19789;BME280;10054;59.332;18.244;2024-02-26T05:12:45;100342.73;;;0.74;100.00
19789;BME280;10054;59.332;18.244;2024-02-26T05:15:14;100355.27;;;0.74;100.00
19789;BME280;10054;59.332;18.244;2024-02-26T05:17:44;100351.38;;;0.74;100.00
19789;BME280;10054;59.332;18.244;2024-02-26T05:20:14;100357.86;;;0.74;100.00
19789;BME280;10054;59.332;18.244;2024-02-26T05:22:43;100362.13;;;0.75;100.00
19789;BME280;10054;59.332;18.244;2024-02-26T05:25:12;100356.45;;;0.77;100.00
19789;BME280;10054;59.332;18.244;2024-02-26T05:27:43;100363.75;;;0.79;100.00
19789;BME280;10054;59.332;18.244;2024-02-26T05:30:12;100360.79;;;0.77;100.00
19789;BME280;10054;59.332;18.244;2024-02-26T05:32:41;100360.34;;;0.77;100.00
19789;BME280;10054;59.332;18.244;2024-02-26T05:35:10;100359.49;;;0.77;100.00
19789;BME280;10054;59.332;18.244;2024-02-26T05:37:39;100358.23;;;0.75;100.00
19789;BME280;10054;59.332;18.244;2024-02-26T05:40:08;100364.28;;;0.76;100.00
19789;BME280;10054;59.332;18.244;2024-02-26T05:42:37;100372.03;;;0.77;100.00
19789;BME280;10054;59.332;18.244;2024-02-26T05:45:07;100366.84;;;0.77;100.00
19789;BME280;10054;59.332;18.244;2024-02-26T05:47:36;100366.47;;;0.75;100.00
19789;BME280;10054;59.332;18.244;2024-02-26T05:50:09;100368.73;;;0.72;100.00
19789;BME280;10054;59.332;18.244;2024-02-26T05:52:38;100363.70;;;0.66;100.00
19789;BME280;10054;59.332;18.244;2024-02-26T05:55:08;100355.55;;;0.63;100.00
19789;BME280;10054;59.332;18.244;2024-02-26T05:57:37;100362.92;;;0.62;100.00
19789;BME280;10054;59.332;18.244;2024-02-26T06:00:07;100358.55;;;0.64;100.00
19789;BME280;10054;59.332;18.244;2024-02-26T06:02:39;100359.69;;;0.71;100.00
19789;BME280;10054;59.332;18.244;2024-02-26T06:05:08;100360.83;;;0.75;100.00
19789;BME280;10054;59.332;18.244;2024-02-26T06:07:37;100358.31;;;0.74;100.00
19789;BME280;10054;59.332;18.244;2024-02-26T06:10:07;100366.47;;;0.75;100.00
19789;BME280;10054;59.332;18.244;2024-02-26T06:12:36;100369.99;;;0.74;100.00
19789;BME280;10054;59.332;18.244;2024-02-26T06:15:06;100374.78;;;0.73;100.00
19789;BME280;10054;59.332;18.244;2024-02-26T06:17:35;100374.86;;;0.70;100.00
19789;BME280;10054;59.332;18.244;2024-02-26T06:20:04;100376.20;;;0.68;100.00
19789;BME280;10054;59.332;18.244;2024-02-26T06:22:33;100380.13;;;0.67;100.00
19789;BME280;10054;59.332;18.244;2024-02-26T06:25:03;100376.72;;;0.64;100.00
19789;BME280;10054;59.332;18.244;2024-02-26T06:27:31;100377.61;;;0.63;100.00
19789;BME280;10054;59.332;18.244;2024-02-26T06:30:00;100376.72;;;0.64;100.00
19789;BME280;10054;59.332;18.244;2024-02-26T06:32:30;100374.12;;;0.64;100.00
19789;BME280;10054;59.332;18.244;2024-02-26T06:34:59;100375.87;;;0.64;100.00
19789;BME280;10054;59.332;18.244;2024-02-26T06:37:28;100380.20;;;0.63;100.00
19789;BME280;10054;59.332;18.244;2024-02-26T06:39:57;100379.39;;;0.61;100.00
19789;BME280;10054;59.332;18.244;2024-02-26T06:42:26;100379.44;;;0.60;100.00
19789;BME280;10054;59.332;18.244;2024-02-26T06:44:56;100381.09;;;0.62;100.00
19789;BME280;10054;59.332;18.244;2024-02-26T06:47:25;100384.51;;;0.64;100.00
19789;BME280;10054;59.332;18.244;2024-02-26T06:49:54;100388.36;;;0.66;100.00
19789;BME280;10054;59.332;18.244;2024-02-26T06:52:25;100383.58;;;0.67;100.00
19789;BME280;10054;59.332;18.244;2024-02-26T06:54:54;100380.41;;;0.72;100.00
19789;BME280;10054;59.332;18.244;2024-02-26T06:57:24;100382.97;;;0.74;100.00
19789;BME280;10054;59.332;18.244;2024-02-26T06:59:53;100379.52;;;0.73;100.00
19789;BME280;10054;59.332;18.244;2024-02-26T07:02:22;100388.54;;;0.75;100.00
19789;BME280;10054;59.332;18.244;2024-02-26T07:04:51;100395.44;;;0.76;100.00
19789;BME280;10054;59.332;18.244;2024-02-26T07:07:21;100384.97;;;0.79;100.00
19789;BME280;10054;59.332;18.244;2024-02-26T07:09:51;100394.47;;;0.80;100.00
19789;BME280;10054;59.332;18.244;2024-02-26T07:12:20;100395.28;;;0.82;100.00
19789;BME280;10054;59.332;18.244;2024-02-26T07:14:49;100393.57;;;0.81;100.00
19789;BME280;10054;59.332;18.244;2024-02-26T07:17:19;100391.34;;;0.83;100.00
19789;BME280;10054;59.332;18.244;2024-02-26T07:19:48;100401.69;;;0.85;100.00
19789;BME280;10054;59.332;18.244;2024-02-26T07:22:17;100405.58;;;0.85;100.00
19789;BME280;10054;59.332;18.244;2024-02-26T07:24:47;100405.98;;;0.86;100.00
19789;BME280;10054;59.332;18.244;2024-02-26T07:27:15;100405.50;;;0.88;100.00
19789;BME280;10054;59.332;18.244;2024-02-26T07:29:45;100412.20;;;0.96;100.00
19789;BME280;10054;59.332;18.244;2024-02-26T07:32:14;100416.95;;;0.97;100.00
19789;BME280;10054;59.332;18.244;2024-02-26T07:34:43;100419.99;;;0.96;100.00
19789;BME280;10054;59.332;18.244;2024-02-26T07:37:12;100420.97;;;0.92;100.00
19789;BME280;10054;59.332;18.244;2024-02-26T07:39:41;100435.73;;;0.90;100.00
19789;BME280;10054;59.332;18.244;2024-02-26T07:42:10;100428.42;;;0.88;100.00
19789;BME280;10054;59.332;18.244;2024-02-26T07:44:39;100434.06;;;0.88;100.00
19789;BME280;10054;59.332;18.244;2024-02-26T07:47:10;100431.47;;;0.88;100.00
19789;BME280;10054;59.332;18.244;2024-02-26T07:49:40;100432.33;;;0.88;100.00
19789;BME280;10054;59.332;18.244;2024-02-26T07:52:09;100437.11;;;0.87;100.00
19789;BME280;10054;59.332;18.244;2024-02-26T07:54:38;100442.42;;;0.83;100.00
19789;BME280;10054;59.332;18.244;2024-02-26T07:57:07;100446.36;;;0.81;100.00
19789;BME280;10054;59.332;18.244;2024-02-26T07:59:36;100451.51;;;0.83;100.00
19789;BME280;10054;59.332;18.244;2024-02-26T08:02:05;100451.95;;;0.82;100.00
19789;BME280;10054;59.332;18.244;2024-02-26T08:04:35;100452.77;;;0.84;100.00
19789;BME280;10054;59.332;18.244;2024-02-26T08:07:05;100452.28;;;0.86;100.00
19789;BME280;10054;59.332;18.244;2024-02-26T08:09:34;100454.80;;;0.89;100.00
19789;BME280;10054;59.332;18.244;2024-02-26T08:12:04;100455.50;;;0.96;100.00
19789;BME280;10054;59.332;18.244;2024-02-26T08:14:33;100456.64;;;1.02;100.00
19789;BME280;10054;59.332;18.244;2024-02-26T08:17:02;100459.97;;;1.07;100.00
19789;BME280;10054;59.332;18.244;2024-02-26T08:19:31;100464.60;;;1.12;100.00
19789;BME280;10054;59.332;18.244;2024-02-26T08:22:00;100467.12;;;1.15;100.00
19789;BME280;10054;59.332;18.244;2024-02-26T08:24:29;100463.95;;;1.20;100.00
19789;BME280;10054;59.332;18.244;2024-02-26T08:26:58;100465.58;;;1.24;100.00
19789;BME280;10054;59.332;18.244;2024-02-26T08:29:27;100465.09;;;1.26;100.00
19789;BME280;10054;59.332;18.244;2024-02-26T08:31:56;100475.00;;;1.28;100.00
19789;BME280;10054;59.332;18.244;2024-02-26T08:34:25;100473.16;;;1.32;100.00
19789;BME280;10054;59.332;18.244;2024-02-26T08:36:54;100472.11;;;1.39;100.00
19789;BME280;10054;59.332;18.244;2024-02-26T08:39:23;100470.69;;;1.44;100.00
19789;BME280;10054;59.332;18.244;2024-02-26T08:41:53;100471.49;;;1.46;100.00
19789;BME280;10054;59.332;18.244;2024-02-26T08:44:23;100480.43;;;1.50;100.00
19789;BME280;10054;59.332;18.244;2024-02-26T08:46:53;100476.00;;;1.54;100.00
19789;BME280;10054;59.332;18.244;2024-02-26T08:49:22;100474.58;;;1.58;100.00
19789;BME280;10054;59.332;18.244;2024-02-26T08:51:51;100479.20;;;1.63;100.00
19789;BME280;10054;59.332;18.244;2024-02-26T08:54:20;100472.48;;;1.71;100.00
19789;BME280;10054;59.332;18.244;2024-02-26T08:56:49;100471.00;;;1.77;100.00
19789;BME280;10054;59.332;18.244;2024-02-26T08:59:18;100474.28;;;1.84;100.00
19789;BME280;10054;59.332;18.244;2024-02-26T09:01:49;100477.11;;;1.91;100.00
19789;BME280;10054;59.332;18.244;2024-02-26T09:04:17;100480.34;;;1.99;100.00
19789;BME280;10054;59.332;18.244;2024-02-26T09:06:47;100475.49;;;2.02;100.00
19789;BME280;10054;59.332;18.244;2024-02-26T09:09:16;100480.06;;;2.08;100.00
19789;BME280;10054;59.332;18.244;2024-02-26T09:11:45;100474.63;;;2.16;100.00
19789;BME280;10054;59.332;18.244;2024-02-26T09:14:15;100486.61;;;2.21;100.00
19789;BME280;10054;59.332;18.244;2024-02-26T09:16:44;100493.03;;;2.23;100.00
19789;BME280;10054;59.332;18.244;2024-02-26T09:19:13;100492.58;;;2.23;100.00
19789;BME280;10054;59.332;18.244;2024-02-26T09:21:46;100492.58;;;2.23;100.00
19789;BME280;10054;59.332;18.244;2024-02-26T09:24:14;100507.42;;;2.21;100.00
19789;BME280;10054;59.332;18.244;2024-02-26T09:26:44;100507.42;;;2.21;100.00
19789;BME280;10054;59.332;18.244;2024-02-26T09:29:12;100503.97;;;2.21;100.00
19789;BME280;10054;59.332;18.244;2024-02-26T09:31:42;100502.55;;;2.24;100.00
19789;BME280;10054;59.332;18.244;2024-02-26T09:34:12;100504.66;;;2.26;100.00
19789;BME280;10054;59.332;18.244;2024-02-26T09:36:41;100505.91;;;2.27;100.00
19789;BME280;10054;59.332;18.244;2024-02-26T09:39:10;100506.67;;;2.31;100.00
19789;BME280;10054;59.332;18.244;2024-02-26T09:41:40;100516.58;;;2.33;100.00
19789;BME280;10054;59.332;18.244;2024-02-26T09:44:10;100510.08;;;2.33;100.00
19789;BME280;10054;59.332;18.244;2024-02-26T09:46:40;100504.38;;;2.35;100.00
19789;BME280;10054;59.332;18.244;2024-02-26T09:49:09;100503.07;;;2.35;100.00
19789;BME280;10054;59.332;18.244;2024-02-26T09:51:40;100502.41;;;2.28;100.00
19789;BME280;10054;59.332;18.244;2024-02-26T09:54:10;100503.75;;;2.27;100.00
19789;BME280;10054;59.332;18.244;2024-02-26T09:56:42;100507.66;;;2.27;100.00
19789;BME280;10054;59.332;18.244;2024-02-26T09:59:13;100512.46;;;2.26;100.00
19789;BME280;10054;59.332;18.244;2024-02-26T10:01:44;100513.27;;;2.28;100.00
19789;BME280;10054;59.332;18.244;2024-02-26T10:04:13;100508.02;;;2.29;100.00
19789;BME280;10054;59.332;18.244;2024-02-26T10:06:43;100514.16;;;2.27;100.00
19789;BME280;10054;59.332;18.244;2024-02-26T10:09:14;100514.87;;;2.32;100.00
19789;BME280;10054;59.332;18.244;2024-02-26T10:11:44;100508.68;;;2.36;100.00
19789;BME280;10054;59.332;18.244;2024-02-26T10:14:14;100521.25;;;2.37;100.00
19789;BME280;10054;59.332;18.244;2024-02-26T10:16:44;100512.94;;;2.39;100.00
19789;BME280;10054;59.332;18.244;2024-02-26T10:19:27;100511.23;;;2.38;100.00
19789;BME280;10054;59.332;18.244;2024-02-26T10:21:59;100511.64;;;2.39;100.00
19789;BME280;10054;59.332;18.244;2024-02-26T10:24:29;100509.66;;;2.47;100.00
19789;BME280;10054;59.332;18.244;2024-02-26T10:26:59;100512.77;;;2.58;100.00
19789;BME280;10054;59.332;18.244;2024-02-26T10:29:28;100508.98;;;2.68;100.00
19789;BME280;10054;59.332;18.244;2024-02-26T10:31:57;100507.08;;;2.73;100.00
19789;BME280;10054;59.332;18.244;2024-02-26T10:34:27;100507.39;;;2.77;100.00
19789;BME280;10054;59.332;18.244;2024-02-26T10:36:57;100498.12;;;2.82;100.00
19789;BME280;10054;59.332;18.244;2024-02-26T10:39:26;100499.72;;;2.86;100.00
19789;BME280;10054;59.332;18.244;2024-02-26T10:41:54;100500.07;;;2.88;100.00
19789;BME280;10054;59.332;18.244;2024-02-26T10:44:23;100501.27;;;2.91;100.00
19789;BME280;10054;59.332;18.244;2024-02-26T10:46:54;100502.88;;;2.95;100.00
19789;BME280;10054;59.332;18.244;2024-02-26T10:49:24;100505.64;;;2.91;100.00
19789;BME280;10054;59.332;18.244;2024-02-26T10:51:57;100502.78;;;2.85;100.00
19789;BME280;10054;59.332;18.244;2024-02-26T10:54:27;100511.05;;;2.85;100.00
19789;BME280;10054;59.332;18.244;2024-02-26T10:56:58;100519.86;;;2.81;100.00
19789;BME280;10054;59.332;18.244;2024-02-26T10:59:27;100515.65;;;2.77;100.00
19789;BME280;10054;59.332;18.244;2024-02-26T11:01:57;100514.75;;;2.78;100.00
19789;BME280;10054;59.332;18.244;2024-02-26T11:04:26;100516.45;;;2.79;100.00
19789;BME280;10054;59.332;18.244;2024-02-26T11:06:58;100515.15;;;2.79;100.00
19789;BME280;10054;59.332;18.244;2024-02-26T11:09:29;100520.77;;;2.80;100.00
19789;BME280;10054;59.332;18.244;2024-02-26T11:11:59;100515.65;;;2.77;100.00
19789;BME280;10054;59.332;18.244;2024-02-26T11:14:30;100521.31;;;2.76;100.00
19789;BME280;10054;59.332;18.244;2024-02-26T11:17:01;100512.05;;;2.81;100.00
19789;BME280;10054;59.332;18.244;2024-02-26T11:19:30;100514.05;;;2.86;100.00
19789;BME280;10054;59.332;18.244;2024-02-26T11:22:01;100505.58;;;2.92;100.00
19789;BME280;10054;59.332;18.244;2024-02-26T11:24:30;100512.52;;;3.05;100.00
19789;BME280;10054;59.332;18.244;2024-02-26T11:27:03;100512.36;;;3.10;100.00
19789;BME280;10054;59.332;18.244;2024-02-26T11:29:42;100510.16;;;3.11;100.00
19789;BME280;10054;59.332;18.244;2024-02-26T11:32:11;100508.85;;;3.11;100.00
19789;BME280;10054;59.332;18.244;2024-02-26T11:34:41;100510.16;;;3.11;100.00
19789;BME280;10054;59.332;18.244;2024-02-26T11:37:16;100513.61;;;3.11;100.00
19789;BME280;10054;59.332;18.244;2024-02-26T11:39:46;100517.42;;;3.14;100.00
19789;BME280;10054;59.332;18.244;2024-02-26T11:42:15;100521.88;;;3.11;100.00
19789;BME280;10054;59.332;18.244;2024-02-26T11:44:45;100529.25;;;3.11;100.00
19789;BME280;10054;59.332;18.244;2024-02-26T11:47:20;100522.13;;;3.16;100.00
19789;BME280;10054;59.332;18.244;2024-02-26T11:49:50;100523.98;;;3.13;100.00
19789;BME280;10054;59.332;18.244;2024-02-26T11:52:18;100514.20;;;3.19;100.00
19789;BME280;10054;59.332;18.244;2024-02-26T11:54:52;100524.03;;;3.24;100.00
19789;BME280;10054;59.332;18.244;2024-02-26T11:57:38;100525.78;;;3.24;100.00
19789;BME280;10054;59.332;18.244;2024-02-26T12:00:12;100524.42;;;3.25;100.00
19789;BME280;10054;59.332;18.244;2024-02-26T12:02:46;100529.89;;;3.31;100.00
19789;BME280;10054;59.332;18.244;2024-02-26T12:05:17;100528.13;;;3.32;100.00
19789;BME280;10054;59.332;18.244;2024-02-26T12:07:49;100528.93;;;3.34;100.00
19789;BME280;10054;59.332;18.244;2024-02-26T12:10:37;100520.66;;;3.34;100.00
19789;BME280;10054;59.332;18.244;2024-02-26T12:13:12;100516.61;;;3.25;100.00
19789;BME280;10054;59.332;18.244;2024-02-26T12:15:55;100514.85;;;3.26;100.00
19789;BME280;10054;59.332;18.244;2024-02-26T12:18:18;100517.41;;;3.27;100.00
19789;BME280;10054;59.332;18.244;2024-02-26T12:21:02;100518.36;;;3.25;100.00
19789;BME280;10054;59.332;18.244;2024-02-26T12:23:31;100517.22;;;3.20;100.00
19789;BME280;10054;59.332;18.244;2024-02-26T12:26:01;100524.69;;;3.18;100.00
19789;BME280;10054;59.332;18.244;2024-02-26T12:28:31;100529.00;;;3.19;100.00
19789;BME280;10054;59.332;18.244;2024-02-26T12:31:00;100525.08;;;3.19;100.00
19789;BME280;10054;59.332;18.244;2024-02-26T12:33:29;100527.69;;;3.19;100.00
19789;BME280;10054;59.332;18.244;2024-02-26T12:35:59;100538.87;;;3.22;100.00
19789;BME280;10054;59.332;18.244;2024-02-26T12:38:28;100538.41;;;3.23;100.00
19789;BME280;10054;59.332;18.244;2024-02-26T12:40:57;100534.85;;;3.25;100.00
19789;BME280;10054;59.332;18.244;2024-02-26T12:43:27;100543.58;;;3.24;100.00
19789;BME280;10054;59.332;18.244;2024-02-26T12:45:56;100545.38;;;3.22;100.00
19789;BME280;10054;59.332;18.244;2024-02-26T12:48:25;100556.31;;;3.20;100.00
19789;BME280;10054;59.332;18.244;2024-02-26T12:50:54;100552.41;;;3.20;100.00
19789;BME280;10054;59.332;18.244;2024-02-26T12:53:24;100566.84;;;3.17;100.00